Time;durP1;ratioP1;P1;durP2;ratioP2;P2;SDS_P1;SDS_P2;PMS_P1;PMS_P2;Temp;Humidity;BMP_temperature;BMP_pressure;BME280_temperature;BME280_humidity;BME280_pressure;Samples;Min_cycle;Max_cycle;Signal;HPM_P1;HPM_P2
2021/12/24 00:01:00;;;;;;;2.03;1.63;;;;;;;17.57;24.83;98531.44;5134782;27;20031;-69
2021/12/24 00:03:26;;;;;;;2.42;1.90;;;;;;;17.56;25.05;98529.78;5137125;27;20031;-66
2021/12/24 00:05:51;;;;;;;1.67;1.20;;;;;;;17.53;24.79;98523.78;5124105;27;20027;-66
2021/12/24 00:08:17;;;;;;;2.33;1.30;;;;;;;17.50;25.12;98520.66;5115827;28;20107;-66
2021/12/24 00:10:46;;;;;;;3.80;1.63;;;;;;;17.50;24.92;98536.72;5117493;27;20051;-70
2021/12/24 00:13:14;;;;;;;3.47;1.42;;;;;;;17.48;25.04;98533.41;5115743;27;20498;-67
2021/12/24 00:37:10;;;;;;;1.90;1.10;;;;;;;17.37;25.10;98513.34;5132193;27;20636;-66
2021/12/24 00:39:44;;;;;;;2.50;1.60;;;;;;;17.37;24.94;98508.84;5130884;27;20446;-67
2021/12/24 00:42:11;;;;;;;1.50;1.13;;;;;;;17.36;24.97;98500.97;5134377;27;20111;-67
2021/12/24 00:44:37;;;;;;;3.97;1.40;;;;;;;17.35;24.76;98502.84;5133833;27;20031;-66
2021/12/24 00:47:03;;;;;;;1.85;1.15;;;;;;;17.34;24.85;98495.84;5132689;27;20397;-67
2021/12/24 00:49:28;;;;;;;2.13;1.35;;;;;;;17.33;24.72;98494.19;5130447;27;20485;-66
2021/12/24 00:57:22;;;;;;;2.38;1.20;;;;;;;17.32;25.11;98487.19;5134930;27;20026;-67
2021/12/24 00:59:48;;;;;;;2.63;1.20;;;;;;;17.34;25.19;98484.34;5132350;27;20450;-67
2021/12/24 01:02:13;;;;;;;1.50;0.95;;;;;;;17.32;25.09;98473.81;5134139;27;20098;-67
2021/12/24 01:04:39;;;;;;;3.20;1.50;;;;;;;17.32;24.63;98483.69;5132878;27;20511;-67
2021/12/24 01:07:04;;;;;;;5.10;1.73;;;;;;;17.31;24.92;98480.16;5133983;27;20117;-67
2021/12/24 01:09:30;;;;;;;2.10;1.33;;;;;;;17.30;24.83;98467.81;5130597;27;20720;-67
2021/12/24 01:11:56;;;;;;;2.13;1.23;;;;;;;17.32;24.90;98470.31;5134041;27;20023;-67
2021/12/24 01:14:22;;;;;;;4.63;1.30;;;;;;;17.28;25.17;98464.50;5130759;27;20121;-68
2021/12/24 01:17:18;;;;;;;3.28;1.20;;;;;;;17.32;25.04;98459.63;5133959;27;20181;-68
2021/12/24 01:19:37;;;;;;;1.85;1.20;;;;;;;17.30;24.79;98451.78;5130985;27;20035;-68
2021/12/24 01:25:10;;;;;;;2.50;1.42;;;;;;;17.28;24.98;98453.00;5127820;27;20399;-68
2021/12/24 01:28:06;;;;;;;1.38;1.08;;;;;;;17.26;24.89;98450.53;5132447;27;20027;-65
2021/12/24 01:39:10;;;;;;;2.20;1.38;;;;;;;17.22;24.96;98462.63;5100804;27;20030;-68
2021/12/24 01:44:26;;;;;;;1.70;1.30;;;;;;;17.21;24.79;98452.94;5132152;27;20034;-68
2021/12/24 01:46:56;;;;;;;2.45;1.30;;;;;;;17.21;24.77;98448.41;5132661;27;20763;-68
2021/12/24 01:49:22;;;;;;;4.18;1.27;;;;;;;17.22;24.77;98446.56;5128102;27;20027;-68
2021/12/24 01:51:47;;;;;;;2.22;1.35;;;;;;;17.23;25.02;98457.06;5132459;27;20053;-68
2021/12/24 01:54:13;;;;;;;2.30;1.38;;;;;;;17.24;24.72;98445.34;5133153;27;20034;-66
2021/12/24 01:56:39;;;;;;;2.00;1.40;;;;;;;17.23;24.80;98445.56;5132399;27;20023;-68
2021/12/24 01:59:05;;;;;;;3.95;1.70;;;;;;;17.23;24.87;98430.34;5127026;27;20031;-68
2021/12/24 02:01:30;;;;;;;3.55;1.83;;;;;;;17.23;24.81;98434.88;5132518;27;20168;-68
2021/12/24 02:03:56;;;;;;;1.88;1.40;;;;;;;17.21;24.86;98429.69;5134242;27;20027;-68
2021/12/24 02:06:21;;;;;;;4.28;1.20;;;;;;;17.22;24.62;98425.19;5134284;27;20034;-68
2021/12/24 02:08:47;;;;;;;2.65;1.75;;;;;;;17.20;24.47;98420.03;5114101;27;20037;-67
2021/12/24 02:11:13;;;;;;;1.67;1.33;;;;;;;17.22;24.46;98417.97;5132014;27;20091;-67
2021/12/24 02:13:39;;;;;;;2.03;1.20;;;;;;;17.21;24.59;98419.00;5114742;27;20035;-67
2021/12/24 02:29:35;;;;;;;2.03;1.58;;;;;;;17.20;24.55;98408.50;5131089;27;20045;-67
2021/12/24 02:32:00;;;;;;;2.38;1.48;;;;;;;17.21;24.97;98402.97;5133650;27;20409;-67
2021/12/24 02:34:26;;;;;;;1.73;1.00;;;;;;;17.19;24.69;98397.00;5130225;27;20031;-67
2021/12/24 02:36:52;;;;;;;1.75;1.30;;;;;;;17.21;24.89;98388.78;5131108;27;20139;-67
2021/12/24 02:39:18;;;;;;;2.17;1.55;;;;;;;17.23;24.61;98394.75;5133972;27;20092;-67
2021/12/24 02:41:43;;;;;;;1.83;1.33;;;;;;;17.20;24.62;98396.00;5133697;27;20030;-67
2021/12/24 02:44:09;;;;;;;1.52;1.35;;;;;;;17.21;24.92;98383.44;5132568;27;20026;-67
2021/12/24 02:47:08;;;;;;;1.73;1.30;;;;;;;17.20;24.49;98382.63;5131215;27;20073;-66
2021/12/24 02:53:55;;;;;;;2.50;1.55;;;;;;;17.22;24.52;98377.06;5130918;27;20026;-66
2021/12/24 02:54:50;;;;;;;2.70;1.35;;;;;;;17.21;25.02;98372.75;5132239;27;20111;-66
2021/12/24 02:57:19;;;;;;;2.53;1.55;;;;;;;17.22;24.63;98374.41;5132985;27;20145;-67
2021/12/24 02:59:58;;;;;;;2.20;1.60;;;;;;;17.23;25.02;98362.69;5120457;27;20036;-67
2021/12/24 03:02:24;;;;;;;2.78;1.48;;;;;;;17.22;24.46;98375.22;5112558;28;20043;-68
2021/12/24 03:04:50;;;;;;;2.55;1.55;;;;;;;17.24;24.99;98375.03;5124098;27;20034;-67
2021/12/24 03:07:15;;;;;;;1.88;1.48;;;;;;;17.25;24.73;98371.34;5099983;28;20036;-68
2021/12/24 03:09:41;;;;;;;2.50;1.58;;;;;;;17.26;24.72;98374.84;5123190;28;20031;-68
2021/12/24 03:12:07;;;;;;;2.78;1.63;;;;;;;17.24;24.86;98367.03;5132967;28;20490;-69
2021/12/24 03:14:33;;;;;;;2.50;1.70;;;;;;;17.24;24.85;98370.50;5132050;28;20043;-68
2021/12/24 03:17:01;;;;;;;3.03;1.70;;;;;;;17.25;24.78;98363.31;5131142;28;20054;-69
2021/12/24 03:19:31;;;;;;;2.30;1.33;;;;;;;17.24;24.72;98359.00;5132112;28;20051;-68
2021/12/24 03:24:35;;;;;;;2.53;1.30;;;;;;;17.22;24.49;98355.69;5133013;28;20027;-68
2021/12/24 03:27:01;;;;;;;2.20;1.63;;;;;;;17.23;24.61;98354.66;5136446;27;20042;-67
2021/12/24 03:29:27;;;;;;;2.40;1.50;;;;;;;17.22;24.70;98348.47;5135363;27;20030;-68
2021/12/24 03:31:52;;;;;;;2.22;1.30;;;;;;;17.23;24.88;98349.31;5137179;27;20117;-68
2021/12/24 03:34:21;;;;;;;2.80;1.38;;;;;;;17.26;25.05;98346.28;5134758;27;20091;-68
2021/12/24 03:36:47;;;;;;;3.45;1.70;;;;;;;17.25;24.92;98336.59;5116479;27;20127;-69
2021/12/24 03:39:14;;;;;;;3.05;1.55;;;;;;;17.24;24.54;98332.28;5125418;27;20557;-68
2021/12/24 03:41:40;;;;;;;3.22;1.92;;;;;;;17.24;24.85;98341.09;5136387;27;20039;-68
2021/12/24 03:44:09;;;;;;;2.85;1.55;;;;;;;17.25;24.66;98339.28;5132364;27;20382;-67
2021/12/24 03:46:45;;;;;;;2.75;1.70;;;;;;;17.24;24.59;98342.97;5125472;27;20126;-67
2021/12/24 03:49:37;;;;;;;2.75;1.77;;;;;;;17.24;24.58;98335.75;5129625;27;20068;-67
2021/12/24 03:52:04;;;;;;;3.00;1.60;;;;;;;17.23;24.81;98330.59;5115400;28;20042;-67
2021/12/24 03:57:15;;;;;;;3.05;1.50;;;;;;;17.22;24.68;98324.41;5116507;28;20118;-68
2021/12/24 03:59:41;;;;;;;2.53;1.60;;;;;;;17.23;24.46;98330.59;5122699;27;20046;-66
2021/12/24 04:02:07;;;;;;;5.22;1.70;;;;;;;17.24;24.75;98332.28;5136940;27;20046;-68
2021/12/24 04:04:33;;;;;;;2.67;1.90;;;;;;;17.24;24.85;98326.91;5135269;27;20031;-68
2021/12/24 04:06:58;;;;;;;3.97;1.48;;;;;;;17.22;24.70;98327.09;5123559;27;20058;-69
2021/12/24 04:09:27;;;;;;;5.00;2.03;;;;;;;17.23;24.68;98336.78;5115922;28;20398;-68
2021/12/24 04:11:52;;;;;;;3.85;2.10;;;;;;;17.28;24.66;98330.84;5115620;28;20553;-69
2021/12/24 04:14:18;;;;;;;2.25;1.70;;;;;;;17.26;24.68;98334.72;5119877;27;20122;-69
2021/12/24 04:16:43;;;;;;;2.63;2.10;;;;;;;17.24;25.26;98326.91;5135282;27;20080;-69
2021/12/24 04:24:58;;;;;;;2.10;1.67;;;;;;;17.23;25.17;98312.72;5045886;28;20107;-70
2021/12/24 04:27:27;;;;;;;4.15;1.98;;;;;;;17.25;24.83;98315.22;5090737;27;20049;-68
2021/12/24 04:30:00;;;;;;;1.98;1.55;;;;;;;17.23;25.03;98310.03;5134028;27;20043;-68
2021/12/24 04:32:35;;;;;;;2.22;1.65;;;;;;;17.22;24.74;98300.38;5135966;27;20041;-67
2021/12/24 04:35:16;;;;;;;2.95;2.00;;;;;;;17.21;24.79;98295.22;5133504;27;20042;-68
2021/12/24 04:51:23;;;;;;;2.40;1.60;;;;;;;17.20;24.77;98289.06;5134891;27;20092;-69
2021/12/24 05:04:48;;;;;;;2.20;1.63;;;;;;;17.22;24.54;98287.00;5123366;27;20031;-69
2021/12/24 05:07:46;;;;;;;3.20;1.98;;;;;;;17.23;24.66;98285.16;5122769;27;20552;-68
2021/12/24 05:10:03;;;;;;;2.90;2.08;;;;;;;17.23;24.94;98277.97;5129400;27;20039;-69
2021/12/24 05:12:31;;;;;;;3.35;2.13;;;;;;;17.24;24.94;98273.47;5135095;27;20172;-68
2021/12/24 05:14:59;;;;;;;2.00;1.73;;;;;;;17.24;24.54;98266.25;5134818;27;20023;-69
2021/12/24 05:17:44;;;;;;;3.78;1.85;;;;;;;17.25;24.98;98272.44;5133257;27;20378;-69
2021/12/24 05:22:53;;;;;;;3.75;1.80;;;;;;;17.23;24.80;98263.78;5135078;27;20062;-68
2021/12/24 05:25:19;;;;;;;2.88;1.77;;;;;;;17.25;24.67;98253.72;5133301;27;20069;-67
2021/12/24 05:27:44;;;;;;;3.20;1.88;;;;;;;17.25;24.43;98243.03;5133836;27;20083;-69
2021/12/24 05:30:11;;;;;;;2.08;1.50;;;;;;;17.26;24.76;98255.38;5120877;27;20031;-71
2021/12/24 05:32:36;;;;;;;3.13;1.80;;;;;;;17.26;24.62;98243.84;5119931;27;20032;-69
2021/12/24 05:35:03;;;;;;;3.20;1.90;;;;;;;17.26;24.53;98247.38;5114297;27;20046;-66
2021/12/24 05:37:29;;;;;;;3.88;2.30;;;;;;;17.27;24.50;98256.19;5114932;27;20164;-69
2021/12/24 05:39:54;;;;;;;2.67;1.77;;;;;;;17.25;24.49;98251.06;5123214;27;20525;-67
2021/12/24 05:42:22;;;;;;;2.17;1.60;;;;;;;17.25;24.47;98251.06;5133177;27;20375;-66
2021/12/24 05:44:48;;;;;;;2.90;2.00;;;;;;;17.23;24.46;98263.78;5134214;27;20110;-67
2021/12/24 05:47:14;;;;;;;1.75;1.60;;;;;;;17.26;24.67;98262.56;5135086;27;20035;-67
2021/12/24 05:49:41;;;;;;;5.13;1.75;;;;;;;17.27;24.78;98261.53;5121867;27;20028;-66
2021/12/24 05:52:07;;;;;;;2.28;1.75;;;;;;;17.27;24.65;98270.41;5113622;28;20486;-67
2021/12/24 05:54:33;;;;;;;2.40;1.73;;;;;;;17.26;24.84;98263.41;5118121;27;20119;-68
2021/12/24 05:56:58;;;;;;;1.88;1.50;;;;;;;17.27;24.64;98272.22;5122144;27;20393;-69
2021/12/24 05:59:24;;;;;;;2.65;1.80;;;;;;;17.28;24.26;98272.03;5124720;27;20410;-67
2021/12/24 06:01:49;;;;;;;2.92;1.73;;;;;;;17.27;24.64;98262.38;5113847;28;20110;-68
2021/12/24 06:04:15;;;;;;;2.60;1.77;;;;;;;17.28;24.72;98269.34;5114631;27;20019;-68
2021/12/24 06:06:41;;;;;;;2.28;1.70;;;;;;;17.28;24.44;98258.66;5113429;28;20031;-69
2021/12/24 06:09:06;;;;;;;2.90;1.90;;;;;;;17.28;24.94;98245.28;5119408;27;20035;-69
2021/12/24 06:11:32;;;;;;;3.20;1.70;;;;;;;17.29;24.61;98248.81;5134013;27;20066;-66
2021/12/24 06:13:57;;;;;;;2.17;1.27;;;;;;;17.29;24.63;98251.47;5131467;27;20118;-67
2021/12/24 06:16:23;;;;;;;1.73;1.48;;;;;;;17.28;24.73;98253.31;5134310;27;20510;-69
2021/12/24 06:18:48;;;;;;;5.05;2.03;;;;;;;17.28;24.58;98250.63;5120439;27;20037;-68
2021/12/24 06:21:14;;;;;;;3.15;1.80;;;;;;;17.29;24.79;98262.19;5118404;27;20050;-68
2021/12/24 06:23:41;;;;;;;2.58;1.90;;;;;;;17.30;24.65;98253.94;5133692;27;20076;-69
2021/12/24 06:26:07;;;;;;;3.05;1.52;;;;;;;17.30;24.68;98261.16;5133689;27;20033;-69
2021/12/24 06:28:34;;;;;;;3.45;1.98;;;;;;;17.31;24.93;98255.59;5131380;27;20121;-69
2021/12/24 06:31:01;;;;;;;2.00;1.55;;;;;;;17.34;24.67;98254.41;5119298;27;20046;-67
2021/12/24 06:33:28;;;;;;;2.42;1.65;;;;;;;17.33;24.73;98250.06;5131762;27;20035;-68
2021/12/24 06:35:55;;;;;;;2.22;1.52;;;;;;;17.33;24.66;98260.78;5133298;27;20031;-67
2021/12/24 06:38:21;;;;;;;2.45;1.80;;;;;;;17.33;24.96;98252.75;5133143;27;20062;-67
2021/12/24 06:40:47;;;;;;;2.40;1.38;;;;;;;17.31;24.86;98247.56;5131239;27;20058;-68
2021/12/24 06:43:12;;;;;;;2.95;1.75;;;;;;;17.31;24.74;98255.59;5132537;27;20079;-66
2021/12/24 06:45:38;;;;;;;3.72;1.90;;;;;;;17.31;25.05;98260.94;5131297;27;20065;-67
2021/12/24 06:48:04;;;;;;;2.28;1.67;;;;;;;17.34;24.84;98254.41;5133562;27;20103;-67
2021/12/24 06:50:30;;;;;;;2.63;1.92;;;;;;;17.35;24.66;98262.22;5133070;27;20031;-67
2021/12/24 06:52:56;;;;;;;2.65;1.65;;;;;;;17.33;25.03;98245.53;5132567;27;20069;-68
2021/12/24 06:55:22;;;;;;;2.47;1.90;;;;;;;17.34;24.65;98249.88;5129119;27;20043;-68
2021/12/24 06:57:48;;;;;;;3.28;1.85;;;;;;;17.35;24.95;98256.06;5132439;27;20065;-68
2021/12/24 07:00:17;;;;;;;2.67;1.73;;;;;;;17.34;24.98;98273.94;5132529;27;20038;-68
2021/12/24 07:02:43;;;;;;;3.28;1.70;;;;;;;17.34;24.93;98275.78;5133003;27;20031;-68
2021/12/24 07:05:09;;;;;;;2.92;1.90;;;;;;;17.33;24.65;98274.13;5131118;28;20035;-68
2021/12/24 07:07:34;;;;;;;2.95;1.60;;;;;;;17.33;24.64;98274.94;5116183;28;20149;-67
2021/12/24 07:10:00;;;;;;;2.10;1.45;;;;;;;17.35;24.82;98262.22;5132692;28;20080;-71
2021/12/24 07:12:26;;;;;;;3.33;1.88;;;;;;;17.35;24.97;98262.22;5126538;28;20502;-68
2021/12/24 07:14:51;;;;;;;3.15;1.77;;;;;;;17.34;24.56;98265.91;5119713;28;20142;-70
2021/12/24 07:17:17;;;;;;;2.97;1.67;;;;;;;17.35;24.64;98270.22;5126652;28;20084;-67
2021/12/24 07:19:43;;;;;;;3.40;2.00;;;;;;;17.36;24.89;98261.19;5119149;28;20035;-69
2021/12/24 07:22:09;;;;;;;3.33;2.13;;;;;;;17.44;25.50;98260.22;5132678;28;20460;-71
2021/12/24 07:24:35;;;;;;;3.75;1.88;;;;;;;17.51;25.90;98265.59;5124097;28;20119;-72
2021/12/24 07:27:02;;;;;;;4.20;2.22;;;;;;;17.56;26.39;98251.63;5132940;28;20071;-77
2021/12/24 07:29:28;;;;;;;4.93;2.15;;;;;;;17.63;26.43;98253.31;5131279;28;20122;-69
2021/12/24 07:31:54;;;;;;;3.35;2.10;;;;;;;17.65;26.34;98256.63;5133048;28;20111;-64
2021/12/24 07:34:19;;;;;;;3.17;2.05;;;;;;;17.66;26.52;98252.94;5131346;28;20485;-67
2021/12/24 07:36:45;;;;;;;5.88;1.80;;;;;;;17.66;26.69;98257.44;5128285;28;20401;-77
2021/12/24 07:39:10;;;;;;;3.60;2.25;;;;;;;17.69;26.48;98247.19;5132693;27;20031;-67
2021/12/24 07:41:36;;;;;;;2.92;1.75;;;;;;;17.69;26.79;98249.00;5132563;28;20485;-69
2021/12/24 07:44:03;;;;;;;3.88;2.05;;;;;;;17.71;26.78;98257.66;5127998;28;20465;-65
2021/12/24 07:46:35;;;;;;;4.95;2.10;;;;;;;17.74;27.01;98240.38;5125619;28;20433;-67
2021/12/24 07:49:12;;;;;;;6.68;2.20;;;;;;;17.79;26.98;98245.97;5116416;28;20027;-68
2021/12/24 07:54:21;;;;;;;4.53;2.30;;;;;;;17.79;27.00;98249.47;5120808;28;20084;-67
2021/12/24 07:56:47;;;;;;;2.90;2.03;;;;;;;17.81;27.03;98254.63;5093718;28;20028;-68
2021/12/24 07:59:14;;;;;;;6.88;1.85;;;;;;;17.82;27.09;98250.94;5113287;28;20039;-68
2021/12/24 08:01:41;;;;;;;5.28;2.20;;;;;;;17.84;26.76;98243.53;5117535;28;20452;-68
2021/12/24 08:04:07;;;;;;;3.75;2.20;;;;;;;17.84;26.87;98249.69;5132365;28;20397;-68
2021/12/24 08:06:32;;;;;;;4.47;2.53;;;;;;;17.88;26.68;98242.09;5132384;28;20070;-68
2021/12/24 08:08:58;;;;;;;3.17;2.17;;;;;;;17.89;26.71;98245.63;5130096;28;20039;-68
2021/12/24 08:11:23;;;;;;;3.60;1.90;;;;;;;17.88;26.58;98242.09;5128881;27;20027;-68
2021/12/24 08:13:49;;;;;;;3.88;2.20;;;;;;;17.90;26.72;98247.25;5131177;27;20027;-67
2021/12/24 08:16:15;;;;;;;2.60;1.98;;;;;;;17.91;26.80;98236.34;5123341;27;20084;-68
2021/12/24 08:18:43;;;;;;;3.92;2.10;;;;;;;17.93;26.69;98238.84;5134460;27;20038;-68
2021/12/24 08:21:09;;;;;;;5.22;2.50;;;;;;;17.94;26.46;98230.59;5118808;27;20080;-68
2021/12/24 08:23:35;;;;;;;3.63;2.17;;;;;;;17.95;26.58;98231.41;5119759;27;20039;-67
2021/12/24 08:26:01;;;;;;;6.63;2.45;;;;;;;17.97;26.88;98226.69;5135437;27;20031;-67
2021/12/24 08:28:28;;;;;;;4.78;2.45;;;;;;;18.01;26.93;98227.16;5134703;27;20122;-68
2021/12/24 08:30:57;;;;;;;4.75;2.65;;;;;;;18.01;27.09;98225.28;5124402;27;20039;-68
2021/12/24 08:33:22;;;;;;;6.40;2.63;;;;;;;18.02;27.09;98226.09;5115358;28;20035;-68
2021/12/24 08:35:48;;;;;;;4.85;2.47;;;;;;;18.01;27.28;98227.16;5113771;27;20042;-68
2021/12/24 08:38:14;;;;;;;2.95;2.00;;;;;;;17.96;27.31;98215.19;5131384;27;20031;-68
2021/12/24 08:40:39;;;;;;;7.38;2.90;;;;;;;17.99;27.21;98224.66;5115224;27;20031;-69
2021/12/24 08:43:05;;;;;;;3.58;2.20;;;;;;;17.99;27.10;98214.81;5117104;27;20043;-68
2021/12/24 08:45:31;;;;;;;3.25;2.25;;;;;;;17.99;27.43;98216.63;5131821;27;20106;-76
2021/12/24 08:47:56;;;;;;;4.50;2.20;;;;;;;17.97;27.82;98210.63;5102161;28;20036;-74
2021/12/24 08:50:22;;;;;;;3.35;2.35;;;;;;;18.01;27.49;98214.59;5114929;28;20040;-70
2021/12/24 08:52:47;;;;;;;4.78;2.30;;;;;;;18.03;28.02;98198.31;5114803;28;20062;-72
2021/12/24 08:55:14;;;;;;;4.60;2.42;;;;;;;18.07;28.51;98186.19;5125583;27;20034;-69
2021/12/24 08:57:41;;;;;;;4.55;2.08;;;;;;;18.07;28.20;98184.34;5130996;27;20030;-71
2021/12/24 09:00:10;;;;;;;5.25;2.70;;;;;;;18.08;28.29;98193.19;5131063;27;20054;-73
2021/12/24 09:02:38;;;;;;;5.95;2.75;;;;;;;18.09;28.41;98186.81;5135114;27;20517;-69
2021/12/24 09:05:05;;;;;;;5.53;2.58;;;;;;;18.11;28.46;98195.47;5133177;27;20504;-72
2021/12/24 09:07:31;;;;;;;5.07;2.33;;;;;;;18.12;28.11;98197.13;5132876;27;20038;-76
2021/12/24 09:09:57;;;;;;;7.78;2.38;;;;;;;18.11;28.14;98185.56;5140063;27;20042;-81
2021/12/24 09:12:22;;;;;;;8.07;3.50;;;;;;;18.12;28.16;98176.53;5117737;27;20088;-72
2021/12/24 09:14:48;;;;;;;11.60;3.92;;;;;;;18.13;28.05;98180.03;5133573;27;20038;-70
2021/12/24 09:17:14;;;;;;;9.88;4.07;;;;;;;18.15;28.39;98172.63;5133671;27;20397;-69
2021/12/24 09:19:46;;;;;;;11.52;4.25;;;;;;;18.15;28.25;98178.00;5128121;27;20037;-72
2021/12/24 09:22:16;;;;;;;7.97;3.97;;;;;;;18.15;28.23;98186.03;5141636;27;20034;-71
2021/12/24 09:24:43;;;;;;;9.80;4.43;;;;;;;18.14;28.22;98173.66;5141494;27;20031;-71
2021/12/24 09:27:10;;;;;;;5.90;3.25;;;;;;;18.14;28.38;98179.81;5132929;27;20035;-75
2021/12/24 09:29:35;;;;;;;4.75;3.13;;;;;;;18.14;28.22;98168.31;5134378;27;20126;-72
2021/12/24 09:32:01;;;;;;;8.70;3.40;;;;;;;18.17;28.30;98169.75;5134829;27;20078;-72
2021/12/24 09:34:27;;;;;;;5.70;3.03;;;;;;;18.17;28.25;98165.19;5138916;27;20537;-70
2021/12/24 09:36:52;;;;;;;5.82;3.10;;;;;;;18.17;28.30;98162.53;5138390;27;20073;-76
2021/12/24 09:39:18;;;;;;;7.70;3.28;;;;;;;18.17;28.58;98151.81;5145531;27;20031;-68
2021/12/24 09:41:45;;;;;;;5.18;2.80;;;;;;;18.16;28.35;98155.53;5117095;27;20039;-68
2021/12/24 09:44:10;;;;;;;4.80;2.47;;;;;;;18.18;28.31;98163.38;5114043;28;20023;-70
2021/12/24 09:46:40;;;;;;;5.95;3.25;;;;;;;18.17;28.21;98162.53;5113999;28;20509;-65
2021/12/24 09:49:07;;;;;;;5.30;3.13;;;;;;;18.16;27.81;98144.81;5125353;27;20432;-63
2021/12/24 09:51:38;;;;;;;5.20;3.15;;;;;;;18.16;28.11;98160.88;5132045;27;20107;-67
2021/12/24 09:54:12;;;;;;;5.78;3.03;;;;;;;18.14;28.10;98153.06;5111507;27;20055;-67
2021/12/24 09:56:38;;;;;;;6.78;3.22;;;;;;;18.13;28.17;98156.75;5130161;27;20038;-77
2021/12/24 09:59:04;;;;;;;6.53;3.00;;;;;;;18.14;28.29;98152.25;5132779;27;20049;-76
2021/12/24 10:01:40;;;;;;;4.72;2.75;;;;;;;18.17;28.23;98162.53;5132872;27;20039;-72
2021/12/24 10:04:08;;;;;;;8.63;3.00;;;;;;;18.19;28.57;98148.94;5130056;27;20023;-74
2021/12/24 10:06:34;;;;;;;3.75;2.60;;;;;;;18.24;28.41;98158.00;5134820;27;20043;-72
2021/12/24 10:09:05;;;;;;;4.70;2.67;;;;;;;18.22;28.32;98154.72;5131423;27;20027;-71
2021/12/24 10:11:47;;;;;;;4.05;2.55;;;;;;;18.21;28.28;98147.72;5115944;27;20062;-71
2021/12/24 10:14:13;;;;;;;5.63;2.95;;;;;;;18.20;28.22;98148.75;5116864;27;20031;-72
2021/12/24 10:16:44;;;;;;;8.43;2.85;;;;;;;18.22;28.09;98153.91;5124861;27;20506;-70
2021/12/24 10:19:10;;;;;;;4.25;2.20;;;;;;;18.25;28.06;98165.03;5128577;27;20038;-70
2021/12/24 10:21:37;;;;;;;7.75;3.08;;;;;;;18.23;27.80;98156.38;5132223;27;20042;-70
2021/12/24 10:24:10;;;;;;;4.40;2.63;;;;;;;18.25;27.60;98154.31;5133281;27;20046;-70
2021/12/24 10:26:38;;;;;;;5.63;2.80;;;;;;;18.24;27.60;98141.94;5133243;27;20042;-71
2021/12/24 10:29:05;;;;;;;6.72;2.85;;;;;;;18.25;27.56;98143.59;5131466;27;20039;-71
2021/12/24 10:31:40;;;;;;;6.68;3.35;;;;;;;18.26;27.41;98153.28;5131326;27;20035;-71
2021/12/24 10:34:13;;;;;;;6.40;2.58;;;;;;;18.26;27.71;98153.28;5129866;27;20069;-71
2021/12/24 10:36:57;;;;;;;5.95;2.60;;;;;;;18.26;27.21;98147.09;5128088;27;20063;-72
2021/12/24 10:39:40;;;;;;;4.32;2.60;;;;;;;18.26;27.29;98137.22;5122986;27;20580;-73
2021/12/24 10:42:15;;;;;;;3.85;2.03;;;;;;;18.27;27.31;98136.19;5133447;27;20035;-73
2021/12/24 10:44:43;;;;;;;3.72;2.20;;;;;;;18.25;27.21;98138.25;5122205;27;20031;-70
2021/12/24 10:47:12;;;;;;;4.63;2.97;;;;;;;18.26;27.12;98139.06;5124195;27;20489;-73
2021/12/24 10:53:01;;;;;;;5.05;2.80;;;;;;;18.24;26.95;98144.63;5104850;28;20062;-72
2021/12/24 10:55:30;;;;;;;4.30;3.28;;;;;;;18.25;26.78;98143.59;5120823;27;20389;-72
2021/12/24 10:57:59;;;;;;;4.43;2.88;;;;;;;18.26;27.12;98144.41;5132458;27;20083;-72
2021/12/24 11:00:58;;;;;;;4.10;2.83;;;;;;;18.26;26.87;98144.41;5127944;27;20486;-72
2021/12/24 11:03:27;;;;;;;6.13;3.20;;;;;;;18.23;26.96;98145.66;5076342;27;20103;-72
2021/12/24 11:06:03;;;;;;;4.85;2.63;;;;;;;18.24;26.98;98136.59;5113495;28;20040;-72
2021/12/24 11:08:29;;;;;;;3.08;2.38;;;;;;;18.21;26.94;98130.84;5112603;28;20042;-73
2021/12/24 11:11:00;;;;;;;4.07;2.63;;;;;;;18.21;26.83;98128.97;5112538;28;20031;-73
2021/12/24 11:13:40;;;;;;;4.38;2.58;;;;;;;18.20;26.51;98119.28;5117170;27;20043;-72
2021/12/24 11:16:18;;;;;;;4.78;2.58;;;;;;;18.20;26.57;98121.97;5124243;28;20039;-72
2021/12/24 11:18:53;;;;;;;3.72;2.70;;;;;;;18.20;26.61;98119.28;5132364;27;20039;-71
2021/12/24 11:21:25;;;;;;;4.70;3.42;;;;;;;18.20;26.71;98115.81;5132040;28;20026;-69
2021/12/24 11:23:51;;;;;;;7.75;3.00;;;;;;;18.18;26.39;98125.88;5116783;28;20031;-71
2021/12/24 11:26:27;;;;;;;5.10;3.10;;;;;;;18.18;26.50;98118.66;5133401;28;20038;-71
2021/12/24 11:28:54;;;;;;;4.47;2.75;;;;;;;18.17;26.56;98119.69;5130941;28;20039;-71
2021/12/24 11:31:22;;;;;;;2.78;2.47;;;;;;;18.17;26.35;98117.00;5130573;28;20023;-70
2021/12/24 11:33:49;;;;;;;4.25;2.55;;;;;;;18.15;26.58;98109.19;5128172;28;20039;-71
2021/12/24 11:36:17;;;;;;;3.47;2.55;;;;;;;18.17;26.38;98108.19;5130589;28;20517;-71
2021/12/24 11:38:51;;;;;;;3.60;2.25;;;;;;;18.15;26.23;98095.81;5132824;27;20127;-71
2021/12/24 11:41:19;;;;;;;4.22;2.50;;;;;;;18.15;26.44;98108.41;5113295;28;20406;-72
2021/12/24 11:43:47;;;;;;;3.70;2.53;;;;;;;18.15;26.38;98114.56;5112969;28;20077;-71
2021/12/24 11:46:16;;;;;;;4.15;3.20;;;;;;;18.12;26.40;98100.75;5116981;27;20042;-73
2021/12/24 11:48:43;;;;;;;4.28;3.53;;;;;;;18.08;26.32;98111.06;5103711;27;20103;-72
2021/12/24 11:51:15;;;;;;;3.88;2.60;;;;;;;18.10;26.13;98103.63;5136958;27;20035;-71
2021/12/24 11:53:41;;;;;;;3.58;2.63;;;;;;;18.07;26.19;98104.06;5134990;27;20043;-71
2021/12/24 11:56:10;;;;;;;3.97;2.30;;;;;;;18.10;26.10;98110.84;5121013;27;20035;-71
2021/12/24 11:58:50;;;;;;;4.78;2.65;;;;;;;18.07;26.28;98113.94;5126704;27;20027;-69
2021/12/24 12:01:17;;;;;;;4.25;3.00;;;;;;;18.07;26.32;98119.28;5130235;27;20034;-71
2021/12/24 12:03:49;;;;;;;3.78;2.88;;;;;;;18.08;26.20;98116.41;5136013;27;20107;-71
2021/12/24 12:06:17;;;;;;;4.18;2.88;;;;;;;18.07;26.11;98113.94;5135942;27;20038;-71
2021/12/24 12:08:47;;;;;;;3.65;2.88;;;;;;;18.07;26.04;98105.91;5133882;27;20422;-73
2021/12/24 12:11:21;;;;;;;4.47;3.20;;;;;;;18.04;26.00;98109.81;5128118;27;20381;-71
2021/12/24 12:13:53;;;;;;;5.10;2.95;;;;;;;18.04;25.75;98111.66;5135522;27;20027;-72
2021/12/24 12:16:21;;;;;;;3.40;2.70;;;;;;;18.04;25.92;98114.31;5136479;27;20142;-72
2021/12/24 12:19:00;;;;;;;3.72;2.72;;;;;;;18.00;25.82;98100.53;5133601;27;20063;-71
2021/12/24 12:21:44;;;;;;;3.72;2.83;;;;;;;17.98;25.78;98113.28;5134857;27;20056;-72
2021/12/24 12:26:52;;;;;;;3.08;2.50;;;;;;;17.95;25.84;98106.47;5132111;27;20119;-72
2021/12/24 12:29:28;;;;;;;5.00;2.90;;;;;;;17.96;25.80;98100.09;5128059;27;20462;-70
2021/12/24 12:32:17;;;;;;;4.65;3.33;;;;;;;17.93;25.91;98105.84;5124501;27;20045;-71
2021/12/24 12:34:42;;;;;;;4.65;2.53;;;;;;;17.92;25.60;98104.19;5119693;27;20043;-70
2021/12/24 12:37:19;;;;;;;4.43;3.28;;;;;;;17.92;25.84;98096.19;5123596;27;20043;-71
2021/12/24 12:39:46;;;;;;;3.38;2.78;;;;;;;17.90;25.72;98092.06;5117656;27;20059;-72
2021/12/24 12:42:17;;;;;;;5.10;2.92;;;;;;;17.89;25.80;98104.59;5126546;27;20039;-72
2021/12/24 12:44:54;;;;;;;4.77;3.00;;;;;;;17.88;25.73;98110.16;5117774;27;20042;-70
2021/12/24 12:47:28;;;;;;;5.35;3.63;;;;;;;17.89;25.06;98109.16;5118283;27;20625;-71
2021/12/24 12:50:13;;;;;;;4.35;3.25;;;;;;;17.88;25.45;98102.16;5134962;27;20413;-70
2021/12/24 12:52:41;;;;;;;4.82;3.47;;;;;;;17.85;25.62;98106.88;5122270;27;20106;-72
2021/12/24 12:55:26;;;;;;;4.82;3.67;;;;;;;17.85;25.63;98103.38;5125682;27;20431;-71
2021/12/24 12:57:51;;;;;;;4.40;3.70;;;;;;;17.83;25.61;98100.91;5135354;27;20027;-72
2021/12/24 13:00:24;;;;;;;5.78;3.65;;;;;;;17.83;25.43;98092.88;5131335;27;20050;-70
2021/12/24 13:05:57;;;;;;;5.18;3.25;;;;;;;17.83;25.34;98084.03;5131880;27;20039;-73
2021/12/24 13:08:26;;;;;;;4.93;3.30;;;;;;;17.84;25.40;98086.50;5107958;27;20050;-72
2021/12/24 13:11:13;;;;;;;3.90;3.22;;;;;;;17.82;25.22;98085.06;5129174;27;20084;-72
2021/12/24 13:13:52;;;;;;;6.10;3.65;;;;;;;17.80;25.48;98079.09;5132319;27;20039;-72
2021/12/24 13:16:24;;;;;;;5.47;3.92;;;;;;;17.77;25.33;98080.31;5121301;27;20034;-71
2021/12/24 13:18:58;;;;;;;5.32;3.42;;;;;;;17.78;25.42;98081.13;5134470;27;20038;-73
2021/12/24 13:24:16;;;;;;;3.95;3.25;;;;;;;17.78;25.09;98083.81;5134504;27;20504;-73
2021/12/24 13:26:43;;;;;;;4.55;3.60;;;;;;;17.76;25.29;98075.16;5131623;27;20038;-71
2021/12/24 13:29:13;;;;;;;4.57;3.50;;;;;;;17.77;25.23;98068.78;5124551;27;20096;-71
2021/12/24 13:31:41;;;;;;;5.13;3.63;;;;;;;17.76;25.02;98061.78;5135378;27;20035;-73